KIWD/IWD METAR and TAF weather

Enter ICAO airport designator
Station Type Date Time Source
KIWD METAR 2020/03/31 13:56 UTC NOAA

KIWD 311356Z AUTO 00000KT 10SM SCT004 BKN028 M02/M03 A3021 RMK AO2 SLP247 T10221033 FZRANO


Station Type Date Time Source
KIWD Decoded METAR 2020/03/31 13:56 UTC NOAA

Ironwood, Gogebic-Iron County Airport, MI, United States (KIWD) 46-32N 090-08W
Mar 31, 2020 - 09:56 AM EDT / 2020.03.31 1356 UTC
Wind: Calm:0
Visibility: 10 mile(s):0
Sky conditions: mostly cloudy
Temperature: 28.0 F (-2.2 C)
Dew Point: 26.1 F (-3.3 C)
Relative Humidity: 92%
Pressure (altimeter): 30.21 in. Hg (1023 hPa)
ob: KIWD 311356Z AUTO 00000KT 10SM SCT004 BKN028 M02/M03 A3021 RMK AO2 SLP247 T10221033 FZRANO
cycle: 14

Station Type Date Time Source
KIWD TAF 2020/03/31 12:22 UTC NOAA

TAF KIWD 311120Z 3112/0112 00000KT P6SM BKN250
FM311500 04005KT P6SM BKN016
FM312000 02007KT P6SM BKN016
FM010200 VRB04KT P6SM BKN012

Example: see airport list